Curuzu Cuatia, Argentina
Current Conditions -  °F | °C
As of 10:00 AM on Monday 20 Oct 2014 (Local Time) from SARL Reporting Station
Clear Clear  
Wind Chill: 23°   Ceiling: Unl
Heat Index: 23°   Visibility: 6mi
Dew Point:   Wind: 23mph
Humidity: 38%   Direction: 110°ESE
Pressure: 30.12"   Gusts: NA
Location:  29.79°S, 58.05°W
Report Text: SARL 201300Z 11020KT CAVOK 23/08 Q1020
Loading
Personal Weather Stations






























Interactive Weather Map
Tropical Storm Tracking
New forecast layout! Learn more

10-Day Weather Forecast

Advertisements
Track Severe Weather on mobile